Time;durP1;ratioP1;P1;durP2;ratioP2;P2;SDS_P1;SDS_P2;PMS_P1;PMS_P2;Temp;Humidity;BMP_temperature;BMP_pressure;BME280_temperature;BME280_humidity;BME280_pressure;Samples;Min_cycle;Max_cycle;Signal;HPM_P1;HPM_P2
2021/11/06 00:00:04;;;;;;;15.93;11.48;;;;;;;;;;2129799;27;20043;-50
2021/11/06 00:01:05;;;;;;;15.43;11.52;;;;;;;;;;2131595;27;20046;-46
2021/11/06 00:02:06;;;;;;;14.25;10.30;;;;;;;;;;2127858;27;20039;-46
2021/11/06 00:03:08;;;;;;;13.90;10.88;;;;;;;;;;2129813;27;20522;-45
2021/11/06 00:04:09;;;;;;;;;;;;;;;;;;2131752;27;20554;-45
2021/11/06 00:05:10;;;;;;;12.65;8.63;;;;;;;;;;2127960;27;19919;-45
2021/11/06 00:06:11;;;;;;;16.10;9.43;;;;;;;;;;2131099;27;20507;-46
2021/11/06 00:07:12;;;;;;;12.38;8.50;;;;;;;;;;2131450;27;20138;-46
2021/11/06 00:08:13;;;;;;;11.63;8.23;;;;;;;;;;2127849;27;20118;-45
2021/11/06 00:09:14;;;;;;;11.95;8.38;;;;;;;;;;2131344;27;20282;-45
2021/11/06 00:10:16;;;;;;;13.05;8.65;;;;;;;;;;2131483;27;20491;-46
2021/11/06 00:11:16;;;;;;;13.32;8.10;;;;;;;;;;2127684;27;20523;-45
2021/11/06 00:12:18;;;;;;;10.93;8.10;;;;;;;;;;2131433;27;20046;-45
2021/11/06 00:13:19;;;;;;;10.55;8.23;;;;;;;;;;2130427;27;20582;-45
2021/11/06 00:14:20;;;;;;;11.60;7.53;;;;;;;;;;2127272;27;20121;-45
2021/11/06 00:15:21;;;;;;;11.20;7.57;;;;;;;;;;2131330;27;20038;-46
2021/11/06 00:16:22;;;;;;;14.43;8.05;;;;;;;;;;2130994;27;20106;-45
2021/11/06 00:17:23;;;;;;;11.52;8.05;;;;;;;;;;2128223;27;20096;-46
2021/11/06 00:18:30;;;;;;;10.82;7.15;;;;;;;;;;2131340;27;20076;-45
2021/11/06 00:19:30;;;;;;;9.80;7.25;;;;;;;;;;2130443;27;20485;-46
2021/11/06 00:20:33;;;;;;;10.75;7.72;;;;;;;;;;2128978;27;20043;-45
2021/11/06 00:21:33;;;;;;;12.32;6.93;;;;;;;;;;2131360;27;20196;-44
2021/11/06 00:22:35;;;;;;;10.40;7.50;;;;;;;;;;2129634;27;20497;-46
2021/11/06 00:23:36;;;;;;;12.15;7.63;;;;;;;;;;2128839;27;20085;-46
2021/11/06 00:24:37;;;;;;;10.32;6.63;;;;;;;;;;2131126;27;20065;-46
2021/11/06 00:25:38;;;;;;;9.18;6.82;;;;;;;;;;2129241;27;20475;-45
2021/11/06 00:26:39;;;;;;;11.27;7.47;;;;;;;;;;2129664;27;20486;-45
2021/11/06 00:27:40;;;;;;;10.00;8.07;;;;;;;;;;2131177;27;20058;-45
2021/11/06 00:28:41;;;;;;;11.32;7.70;;;;;;;;;;2129084;27;20046;-45
2021/11/06 00:29:42;;;;;;;10.83;7.90;;;;;;;;;;2131034;27;20051;-45
2021/11/06 00:30:43;;;;;;;9.95;7.78;;;;;;;;;;2131285;27;20047;-44
2021/11/06 00:31:44;;;;;;;13.98;8.63;;;;;;;;;;2128987;27;20551;-45
2021/11/06 00:32:46;;;;;;;11.17;8.07;;;;;;;;;;2124635;27;20039;-46
2021/11/06 00:33:47;;;;;;;12.02;8.40;;;;;;;;;;2122786;28;20050;-45
2021/11/06 00:34:49;;;;;;;10.77;7.47;;;;;;;;;;2124906;27;20121;-45
2021/11/06 00:35:50;;;;;;;10.98;8.10;;;;;;;;;;2130883;27;20667;-45
2021/11/06 00:36:51;;;;;;;11.37;8.57;;;;;;;;;;2131129;27;20049;-45
2021/11/06 00:37:52;;;;;;;11.60;8.38;;;;;;;;;;2128319;27;20499;-45
2021/11/06 00:38:53;;;;;;;12.50;8.30;;;;;;;;;;2130596;27;20047;-45
2021/11/06 00:39:54;;;;;;;12.35;7.68;;;;;;;;;;2131262;27;20047;-45
2021/11/06 00:40:56;;;;;;;11.43;7.57;;;;;;;;;;2127654;27;20047;-46
2021/11/06 00:41:57;;;;;;;;;;;;;;;;;;2131379;27;20056;-47
2021/11/06 00:42:58;;;;;;;11.13;7.43;;;;;;;;;;2131450;27;19933;-46
2021/11/06 00:43:59;;;;;;;10.32;7.05;;;;;;;;;;2127240;27;20046;-46
2021/11/06 00:45:00;;;;;;;8.37;6.83;;;;;;;;;;2131337;27;20043;-47
2021/11/06 00:46:01;;;;;;;9.20;7.00;;;;;;;;;;2131203;27;20129;-46
2021/11/06 00:47:02;;;;;;;8.50;7.27;;;;;;;;;;2126665;27;20125;-46
2021/11/06 00:48:03;;;;;;;10.38;7.00;;;;;;;;;;2131288;27;20353;-47
2021/11/06 00:49:05;;;;;;;13.77;7.90;;;;;;;;;;2130613;27;20122;-47
2021/11/06 00:50:07;;;;;;;10.75;7.05;;;;;;;;;;2127938;27;20134;-47
2021/11/06 00:51:09;;;;;;;9.80;7.22;;;;;;;;;;2131140;27;20046;-49
2021/11/06 00:52:10;;;;;;;9.55;7.20;;;;;;;;;;2130110;27;20051;-49
2021/11/06 00:53:11;;;;;;;12.23;7.65;;;;;;;;;;2128659;27;20129;-47
2021/11/06 00:54:12;;;;;;;9.50;7.15;;;;;;;;;;2131131;27;20449;-47
2021/11/06 00:55:13;;;;;;;10.23;7.95;;;;;;;;;;2129516;27;20133;-47
2021/11/06 00:56:14;;;;;;;9.60;6.85;;;;;;;;;;2128420;27;20129;-47
2021/11/06 00:57:15;;;;;;;9.57;6.97;;;;;;;;;;2131077;27;20130;-47
2021/11/06 00:58:16;;;;;;;8.45;6.32;;;;;;;;;;2129004;27;20372;-47
2021/11/06 00:59:17;;;;;;;9.93;6.50;;;;;;;;;;2129556;27;20102;-48
2021/11/06 01:00:19;;;;;;;8.13;6.90;;;;;;;;;;2131152;27;20043;-47
2021/11/06 01:01:20;;;;;;;10.25;6.70;;;;;;;;;;2128907;27;20143;-47
2021/11/06 01:02:21;;;;;;;10.35;6.60;;;;;;;;;;2129470;27;20047;-46
2021/11/06 01:03:22;;;;;;;8.98;6.10;;;;;;;;;;2129612;27;20479;-47
2021/11/06 01:04:24;;;;;;;10.63;6.83;;;;;;;;;;2128842;27;20042;-47
2021/11/06 01:05:25;;;;;;;12.23;6.70;;;;;;;;;;2130804;27;20500;-47
2021/11/06 01:06:29;;;;;;;12.02;7.20;;;;;;;;;;2130994;27;20399;-47
2021/11/06 01:07:30;;;;;;;8.65;6.70;;;;;;;;;;2128565;27;20043;-46
2021/11/06 01:08:31;;;;;;;10.05;6.78;;;;;;;;;;2130986;27;20333;-46
2021/11/06 01:09:32;;;;;;;10.02;7.38;;;;;;;;;;2130912;27;20047;-47
2021/11/06 01:10:34;;;;;;;9.95;7.32;;;;;;;;;;2128661;27;20093;-46
2021/11/06 01:11:35;;;;;;;10.20;6.63;;;;;;;;;;2130910;27;20582;-47
2021/11/06 01:12:36;;;;;;;11.38;6.55;;;;;;;;;;2131085;27;20542;-46
2021/11/06 01:13:37;;;;;;;10.73;6.50;;;;;;;;;;2127277;27;20095;-46
2021/11/06 01:14:38;;;;;;;9.82;6.78;;;;;;;;;;2131029;27;20066;-46
2021/11/06 01:15:39;;;;;;;8.80;6.25;;;;;;;;;;2130952;27;20554;-47
2021/11/06 01:16:40;;;;;;;9.03;6.67;;;;;;;;;;2127523;27;20042;-45
2021/11/06 01:17:41;;;;;;;9.60;6.63;;;;;;;;;;2131005;27;20045;-46
2021/11/06 01:18:42;;;;;;;8.05;6.75;;;;;;;;;;2130449;27;20122;-46
2021/11/06 01:19:44;;;;;;;9.65;6.88;;;;;;;;;;2128001;27;20047;-47
2021/11/06 01:20:45;;;;;;;9.05;6.18;;;;;;;;;;2131032;27;20122;-46
2021/11/06 01:21:46;;;;;;;10.18;7.20;;;;;;;;;;2130472;27;20515;-47
2021/11/06 01:22:47;;;;;;;7.43;6.10;;;;;;;;;;2129078;27;20071;-46
2021/11/06 01:23:48;;;;;;;8.38;6.20;;;;;;;;;;2131093;27;20066;-46
2021/11/06 01:24:49;;;;;;;10.55;6.47;;;;;;;;;;2129975;27;20513;-45
2021/11/06 01:25:50;;;;;;;10.43;6.53;;;;;;;;;;2130017;27;20122;-46
2021/11/06 01:26:52;;;;;;;11.07;6.90;;;;;;;;;;2132534;27;20087;-46
2021/11/06 01:27:54;;;;;;;9.75;7.53;;;;;;;;;;2130483;27;20141;-46
2021/11/06 01:28:55;;;;;;;8.52;6.93;;;;;;;;;;2132133;27;20149;-46
2021/11/06 01:29:56;;;;;;;9.03;7.80;;;;;;;;;;2132331;27;20091;-44
2021/11/06 01:30:57;;;;;;;9.95;7.40;;;;;;;;;;2130344;27;20125;-47
2021/11/06 01:31:58;;;;;;;15.17;8.60;;;;;;;;;;2130501;27;20038;-46
2021/11/06 01:32:59;;;;;;;10.20;7.13;;;;;;;;;;2132510;27;20197;-43
2021/11/06 01:34:00;;;;;;;10.52;8.35;;;;;;;;;;2129296;27;20058;-45
2021/11/06 01:35:02;;;;;;;10.57;7.18;;;;;;;;;;2131646;27;20487;-44
2021/11/06 01:36:03;;;;;;;;;;;;;;;;;;2132799;27;20628;-46
2021/11/06 01:37:04;;;;;;;11.60;7.18;;;;;;;;;;2129012;27;19923;-45
2021/11/06 01:38:05;;;;;;;9.37;7.70;;;;;;;;;;2132153;27;20039;-44
2021/11/06 01:39:06;;;;;;;12.73;8.45;;;;;;;;;;2132344;27;20078;-45
2021/11/06 01:40:09;;;;;;;10.33;7.93;;;;;;;;;;2130103;27;20091;-46
2021/11/06 01:41:10;;;;;;;10.27;7.53;;;;;;;;;;2131365;27;20121;-46
2021/11/06 01:42:11;;;;;;;12.20;7.90;;;;;;;;;;2132378;27;20479;-46
2021/11/06 01:43:12;;;;;;;13.60;8.38;;;;;;;;;;2128308;27;20122;-45
2021/11/06 01:44:13;;;;;;;10.77;7.97;;;;;;;;;;2132436;27;20138;-44
2021/11/06 01:45:15;;;;;;;10.82;8.00;;;;;;;;;;2132354;27;20109;-44
2021/11/06 01:46:16;;;;;;;11.85;8.13;;;;;;;;;;2127310;27;20107;-44
2021/11/06 01:47:17;;;;;;;11.02;7.18;;;;;;;;;;2132187;27;20452;-43
2021/11/06 01:48:18;;;;;;;11.83;8.40;;;;;;;;;;2132266;27;20075;-44
2021/11/06 01:49:20;;;;;;;13.15;7.90;;;;;;;;;;2127725;27;20046;-44
2021/11/06 01:50:23;;;;;;;9.93;7.00;;;;;;;;;;2132315;27;20077;-44
2021/11/06 01:51:25;;;;;;;11.77;7.47;;;;;;;;;;2131752;27;20550;-44
2021/11/06 01:52:26;;;;;;;10.98;7.43;;;;;;;;;;2128499;27;20133;-44
2021/11/06 01:53:27;;;;;;;9.45;7.25;;;;;;;;;;2132274;27;20483;-46
2021/11/06 01:54:29;;;;;;;10.45;7.40;;;;;;;;;;2131077;27;20046;-46
2021/11/06 01:55:30;;;;;;;9.23;7.45;;;;;;;;;;2130045;27;20055;-46
2021/11/06 01:56:32;;;;;;;11.43;7.50;;;;;;;;;;2132323;27;20440;-46
2021/11/06 01:57:33;;;;;;;12.32;7.53;;;;;;;;;;2129928;27;20475;-45
2021/11/06 01:58:34;;;;;;;8.57;6.87;;;;;;;;;;2131896;27;20038;-45
2021/11/06 01:59:35;;;;;;;8.88;6.38;;;;;;;;;;2132324;27;20290;-46
2021/11/06 02:00:38;;;;;;;8.60;6.28;;;;;;;;;;2130078;27;20399;-45
2021/11/06 02:01:39;;;;;;;10.50;7.35;;;;;;;;;;2131015;27;20042;-45
2021/11/06 02:02:41;;;;;;;9.50;7.53;;;;;;;;;;2132244;27;20534;-45
2021/11/06 02:03:42;;;;;;;8.15;6.95;;;;;;;;;;2128472;27;20816;-46
2021/11/06 02:04:45;;;;;;;10.98;6.90;;;;;;;;;;2130663;27;20054;-45
2021/11/06 02:05:47;;;;;;;12.05;6.95;;;;;;;;;;2132376;27;20130;-48
2021/11/06 02:06:48;;;;;;;8.93;6.50;;;;;;;;;;2128848;27;20121;-49
2021/11/06 02:07:49;;;;;;;13.27;6.83;;;;;;;;;;2131967;27;20125;-48
2021/11/06 02:08:50;;;;;;;8.95;7.43;;;;;;;;;;2132169;27;20535;-51
2021/11/06 02:09:51;;;;;;;8.95;6.90;;;;;;;;;;2128548;27;20094;-47
2021/11/06 02:10:52;;;;;;;8.27;6.83;;;;;;;;;;2132036;27;20038;-49
2021/11/06 02:11:53;;;;;;;8.85;6.82;;;;;;;;;;2132183;27;20045;-47
2021/11/06 02:12:54;;;;;;;12.77;6.63;;;;;;;;;;2129659;27;20131;-49
2021/11/06 02:13:55;;;;;;;8.40;6.70;;;;;;;;;;2123606;28;20066;-48
2021/11/06 02:14:57;;;;;;;9.48;6.55;;;;;;;;;;2123576;28;20047;-47
2021/11/06 02:15:58;;;;;;;10.80;6.53;;;;;;;;;;2126489;27;20426;-48
2021/11/06 02:16:59;;;;;;;10.02;7.72;;;;;;;;;;2132009;27;20070;-48
2021/11/06 02:18:00;;;;;;;10.30;6.90;;;;;;;;;;2131565;27;20042;-47
2021/11/06 02:19:02;;;;;;;10.80;6.90;;;;;;;;;;2128075;27;20126;-48
2021/11/06 02:20:03;;;;;;;11.13;6.70;;;;;;;;;;2132255;27;20130;-49
2021/11/06 02:21:05;;;;;;;9.95;6.65;;;;;;;;;;2130612;27;20043;-46
2021/11/06 02:22:07;;;;;;;10.75;6.07;;;;;;;;;;2127011;27;20053;-46
2021/11/06 02:23:07;;;;;;;9.98;6.78;;;;;;;;;;2123455;28;20475;-46
2021/11/06 02:24:08;;;;;;;10.77;6.33;;;;;;;;;;2124203;27;20039;-46
2021/11/06 02:25:10;;;;;;;9.63;6.18;;;;;;;;;;2129641;27;20495;-46
2021/11/06 02:26:11;;;;;;;8.70;6.18;;;;;;;;;;2131952;27;20075;-47
2021/11/06 02:27:33;;;;;;;10.02;6.28;;;;;;;;;;2129740;27;20047;-46
2021/11/06 02:28:34;;;;;;;10.32;6.70;;;;;;;;;;2131896;27;20121;-46
2021/11/06 02:29:35;;;;;;;8.33;7.10;;;;;;;;;;2132262;27;20054;-47
2021/11/06 02:30:37;;;;;;;;;;;;;;;;;;2129543;27;20399;-47
2021/11/06 02:31:38;;;;;;;10.30;6.22;;;;;;;;;;2131452;27;19955;-46
2021/11/06 02:32:40;;;;;;;7.72;6.15;;;;;;;;;;2131909;27;20407;-46
2021/11/06 02:33:41;;;;;;;8.35;6.22;;;;;;;;;;2128340;27;20403;-46
2021/11/06 02:34:42;;;;;;;9.20;7.00;;;;;;;;;;2132034;27;20122;-47
2021/11/06 02:35:43;;;;;;;11.20;7.00;;;;;;;;;;2131963;27;20138;-46
2021/11/06 02:36:46;;;;;;;9.35;6.90;;;;;;;;;;2127156;27;20134;-46
2021/11/06 02:37:47;;;;;;;11.65;6.13;;;;;;;;;;2132079;27;20047;-47
2021/11/06 02:38:49;;;;;;;9.60;6.50;;;;;;;;;;2131508;27;20039;-46
2021/11/06 02:39:50;;;;;;;7.28;6.10;;;;;;;;;;2128978;27;20071;-46
2021/11/06 02:40:51;;;;;;;9.07;6.30;;;;;;;;;;2132062;27;20066;-47
2021/11/06 02:41:57;;;;;;;7.93;6.43;;;;;;;;;;2131377;27;20057;-45
2021/11/06 02:42:59;;;;;;;11.93;6.20;;;;;;;;;;2129776;27;20047;-47
2021/11/06 02:44:05;;;;;;;8.63;6.10;;;;;;;;;;2131963;27;20042;-46
2021/11/06 02:45:07;;;;;;;9.90;6.22;;;;;;;;;;2129836;27;20485;-47
2021/11/06 02:46:08;;;;;;;;;;;;;;;;;;2130895;27;20072;-46
2021/11/06 02:47:09;;;;;;;8.57;6.10;;;;;;;;;;2131841;27;19919;-46
2021/11/06 02:48:10;;;;;;;9.27;6.50;;;;;;;;;;2128295;27;20134;-48
2021/11/06 02:49:11;;;;;;;12.13;7.47;;;;;;;;;;2130560;27;20053;-46
2021/11/06 02:50:13;;;;;;;12.57;7.47;;;;;;;;;;2131865;27;20046;-46
2021/11/06 02:51:14;;;;;;;9.93;7.47;;;;;;;;;;2129616;27;20125;-48
2021/11/06 02:52:16;;;;;;;10.70;6.68;;;;;;;;;;2130614;27;20383;-47
2021/11/06 02:53:17;;;;;;;;;;;;;;;;;;2132459;27;20050;-46
2021/11/06 02:54:18;;;;;;;9.18;6.70;;;;;;;;;;2129427;27;20286;-47
2021/11/06 02:55:19;;;;;;;7.43;5.82;;;;;;;;;;2130772;27;20162;-45
2021/11/06 02:56:22;;;;;;;8.68;6.70;;;;;;;;;;2131873;27;20055;-45
2021/11/06 02:57:23;;;;;;;7.90;6.38;;;;;;;;;;2128297;27;20058;-45
2021/11/06 02:58:25;;;;;;;9.15;6.78;;;;;;;;;;2123494;28;20127;-46
2021/11/06 02:59:26;;;;;;;9.57;6.22;;;;;;;;;;2123300;28;20156;-47
2021/11/06 03:00:27;;;;;;;;;;;;;;;;;;2128150;27;20049;-47
2021/11/06 03:01:29;;;;;;;8.50;6.40;;;;;;;;;;2131733;27;20290;-46
2021/11/06 03:02:29;;;;;;;9.25;6.40;;;;;;;;;;2131511;27;20077;-48
2021/11/06 03:03:31;;;;;;;7.87;6.63;;;;;;;;;;2126217;27;20054;-48
2021/11/06 03:04:34;;;;;;;7.32;6.40;;;;;;;;;;2131862;27;20125;-45
2021/11/06 03:05:35;;;;;;;10.35;6.80;;;;;;;;;;2131417;27;20050;-46
2021/11/06 03:06:36;;;;;;;11.23;7.00;;;;;;;;;;2128658;27;20111;-46
2021/11/06 03:07:39;;;;;;;9.45;6.38;;;;;;;;;;2131831;27;20051;-46
2021/11/06 03:08:40;;;;;;;8.45;7.10;;;;;;;;;;2130534;27;20038;-47
2021/11/06 03:09:42;;;;;;;8.23;6.65;;;;;;;;;;2129454;27;20408;-45
2021/11/06 03:10:43;;;;;;;8.80;7.00;;;;;;;;;;2131727;27;20604;-46
2021/11/06 03:11:44;;;;;;;7.50;6.55;;;;;;;;;;2129917;27;20055;-47
2021/11/06 03:12:45;;;;;;;11.15;6.72;;;;;;;;;;2130207;27;20520;-48
2021/11/06 03:13:46;;;;;;;9.60;6.93;;;;;;;;;;2131608;27;20047;-48
2021/11/06 03:14:47;;;;;;;9.43;6.80;;;;;;;;;;2129705;27;20095;-47
2021/11/06 03:15:48;;;;;;;7.77;6.40;;;;;;;;;;2129335;27;20520;-47
2021/11/06 03:16:49;;;;;;;8.93;6.75;;;;;;;;;;2131671;27;20402;-48
2021/11/06 03:17:50;;;;;;;7.57;6.75;;;;;;;;;;2129475;27;20054;-47
2021/11/06 03:18:51;;;;;;;9.60;6.55;;;;;;;;;;2130224;27;20046;-47
2021/11/06 03:19:52;;;;;;;9.97;6.97;;;;;;;;;;2131904;27;20049;-48
2021/11/06 03:20:53;;;;;;;9.20;7.45;;;;;;;;;;2129530;27;20043;-47
2021/11/06 03:21:54;;;;;;;9.52;7.10;;;;;;;;;;2130424;27;20522;-48
2021/11/06 03:22:58;;;;;;;7.68;6.72;;;;;;;;;;2131800;27;20126;-47
2021/11/06 03:23:59;;;;;;;9.57;7.30;;;;;;;;;;2128158;27;20049;-48
2021/11/06 03:25:02;;;;;;;8.23;7.07;;;;;;;;;;2131429;27;20058;-49
2021/11/06 03:26:03;;;;;;;8.70;6.72;;;;;;;;;;2131659;27;20129;-48
2021/11/06 03:27:04;;;;;;;9.20;7.07;;;;;;;;;;2126594;27;20050;-52
2021/11/06 03:28:06;;;;;;;9.70;6.97;;;;;;;;;;2123048;28;20050;-49
2021/11/06 03:29:07;;;;;;;10.88;7.68;;;;;;;;;;2123032;28;20050;-48
2021/11/06 03:30:08;;;;;;;;;;;;;;;;;;2128156;27;20133;-51
2021/11/06 03:31:09;;;;;;;9.32;7.20;;;;;;;;;;2131536;27;19926;-48
2021/11/06 03:32:10;;;;;;;11.68;7.20;;;;;;;;;;2131030;27;20071;-48
2021/11/06 03:33:11;;;;;;;7.73;6.27;;;;;;;;;;2128549;27;20054;-49
2021/11/06 03:34:12;;;;;;;9.50;7.25;;;;;;;;;;2131656;27;20046;-48
2021/11/06 03:35:14;;;;;;;8.00;7.17;;;;;;;;;;2131189;27;20239;-48
2021/11/06 03:36:15;;;;;;;8.75;6.72;;;;;;;;;;2128427;27;20047;-48
2021/11/06 03:37:17;;;;;;;8.63;7.27;;;;;;;;;;2131505;27;20050;-50
2021/11/06 03:38:18;;;;;;;8.55;7.35;;;;;;;;;;2130804;27;20050;-48
2021/11/06 03:39:19;;;;;;;10.00;7.18;;;;;;;;;;2129160;27;20038;-50
2021/11/06 03:40:20;;;;;;;7.85;7.05;;;;;;;;;;2131528;27;20514;-48
2021/11/06 03:41:22;;;;;;;11.23;8.13;;;;;;;;;;2129731;27;20412;-47
2021/11/06 03:42:22;;;;;;;8.23;7.13;;;;;;;;;;2128775;27;20129;-48
2021/11/06 03:43:24;;;;;;;8.90;7.30;;;;;;;;;;2131691;27;20075;-49
2021/11/06 03:44:24;;;;;;;9.13;7.22;;;;;;;;;;2130144;27;20129;-50
2021/11/06 03:45:26;;;;;;;8.90;6.75;;;;;;;;;;2129948;27;20043;-52
2021/11/06 03:46:27;;;;;;;11.85;7.93;;;;;;;;;;2131421;27;20133;-47
2021/11/06 03:47:28;;;;;;;9.43;8.03;;;;;;;;;;2129273;27;20049;-49
2021/11/06 03:48:30;;;;;;;9.50;7.55;;;;;;;;;;2129814;27;20183;-47
2021/11/06 03:49:31;;;;;;;11.13;7.67;;;;;;;;;;2131460;27;20133;-47
2021/11/06 03:50:32;;;;;;;;;;;;;;;;;;2129635;27;20413;-47
2021/11/06 03:51:34;;;;;;;8.52;7.25;;;;;;;;;;2130139;27;19923;-47
2021/11/06 03:52:36;;;;;;;9.00;8.10;;;;;;;;;;2131555;27;20130;-47
2021/11/06 03:53:38;;;;;;;8.52;7.32;;;;;;;;;;2129183;27;20145;-47
2021/11/06 03:54:39;;;;;;;10.65;7.78;;;;;;;;;;2130449;27;20043;-48
2021/11/06 03:55:40;;;;;;;9.40;7.65;;;;;;;;;;2131535;27;20043;-47
2021/11/06 03:56:41;;;;;;;9.02;7.40;;;;;;;;;;2127942;27;20074;-46
2021/11/06 03:57:42;;;;;;;10.73;7.82;;;;;;;;;;2131369;27;20077;-46
2021/11/06 03:58:43;;;;;;;11.05;7.72;;;;;;;;;;2131573;27;20121;-47
2021/11/06 03:59:44;;;;;;;12.30;9.18;;;;;;;;;;2129088;27;20069;-46
2021/11/06 04:00:45;;;;;;;11.90;8.27;;;;;;;;;;2131328;27;20108;-49
2021/11/06 04:01:46;;;;;;;15.33;9.30;;;;;;;;;;2131363;27;20050;-49
2021/11/06 04:02:48;;;;;;;11.07;8.23;;;;;;;;;;2126127;27;20053;-48
2021/11/06 04:03:49;;;;;;;13.80;9.75;;;;;;;;;;2131401;27;20038;-48
2021/11/06 04:04:50;;;;;;;15.32;10.13;;;;;;;;;;2130775;27;20402;-46
2021/11/06 04:05:51;;;;;;;14.13;10.30;;;;;;;;;;2128331;27;20043;-47
2021/11/06 04:06:52;;;;;;;17.15;10.68;;;;;;;;;;2131379;27;20047;-49
2021/11/06 04:07:53;;;;;;;16.77;11.23;;;;;;;;;;2131078;27;20042;-46
2021/11/06 04:08:54;;;;;;;17.50;10.77;;;;;;;;;;2128222;27;20133;-47
2021/11/06 04:09:55;;;;;;;17.65;10.85;;;;;;;;;;2131464;27;20042;-46
2021/11/06 04:10:56;;;;;;;19.23;12.07;;;;;;;;;;2130540;27;20122;-46
2021/11/06 04:11:57;;;;;;;20.65;10.98;;;;;;;;;;2128793;27;20446;-48
2021/11/06 04:12:58;;;;;;;16.98;11.57;;;;;;;;;;2131354;27;20064;-49
2021/11/06 04:13:59;;;;;;;15.60;11.38;;;;;;;;;;2129693;27;20038;-47
2021/11/06 04:15:00;;;;;;;18.00;10.95;;;;;;;;;;2128859;27;20168;-47
2021/11/06 04:16:01;;;;;;;17.55;12.18;;;;;;;;;;2131445;27;20437;-47
2021/11/06 04:17:03;;;;;;;18.70;11.75;;;;;;;;;;2129184;27;20441;-47
2021/11/06 04:18:04;;;;;;;20.00;12.25;;;;;;;;;;2130879;27;20062;-47
2021/11/06 04:19:05;;;;;;;16.63;11.88;;;;;;;;;;2131464;27;20054;-46
2021/11/06 04:20:07;;;;;;;17.17;10.73;;;;;;;;;;2129064;27;20047;-47
2021/11/06 04:21:08;;;;;;;15.13;10.13;;;;;;;;;;2130037;27;20122;-46
2021/11/06 04:22:09;;;;;;;11.63;9.48;;;;;;;;;;2131197;27;20446;-50
2021/11/06 04:23:10;;;;;;;15.95;10.18;;;;;;;;;;2127897;27;20134;-47
2021/11/06 04:24:12;;;;;;;13.25;9.40;;;;;;;;;;2131189;27;20050;-46
2021/11/06 04:25:12;;;;;;;14.10;10.23;;;;;;;;;;2131181;27;20122;-46
2021/11/06 04:26:14;;;;;;;15.53;11.10;;;;;;;;;;2128958;27;20039;-46
2021/11/06 04:27:14;;;;;;;11.68;9.57;;;;;;;;;;2129931;27;20061;-47
2021/11/06 04:28:16;;;;;;;13.20;8.93;;;;;;;;;;2131418;27;20384;-45
2021/11/06 04:29:17;;;;;;;12.82;9.48;;;;;;;;;;2128763;27;20043;-46
2021/11/06 04:30:18;;;;;;;12.95;10.25;;;;;;;;;;2131124;27;20047;-46
2021/11/06 04:31:19;;;;;;;14.53;10.63;;;;;;;;;;2131250;27;20050;-47
2021/11/06 04:32:20;;;;;;;12.20;8.77;;;;;;;;;;2127838;27;20130;-46
2021/11/06 04:33:21;;;;;;;11.67;8.67;;;;;;;;;;2122838;28;20058;-47
2021/11/06 04:34:22;;;;;;;12.20;9.60;;;;;;;;;;2122632;28;20403;-45
2021/11/06 04:35:23;;;;;;;11.67;8.93;;;;;;;;;;2126989;27;20046;-47
2021/11/06 04:36:28;;;;;;;11.60;8.68;;;;;;;;;;2131174;27;20077;-49
2021/11/06 04:37:29;;;;;;;12.90;10.60;;;;;;;;;;2130824;27;20121;-47
2021/11/06 04:38:30;;;;;;;13.98;8.73;;;;;;;;;;2127994;27;20506;-46
2021/11/06 04:39:31;;;;;;;17.90;9.80;;;;;;;;;;2131322;27;20043;-47
2021/11/06 04:40:34;;;;;;;13.43;10.10;;;;;;;;;;2130346;27;20773;-50
2021/11/06 04:41:34;;;;;;;12.88;10.18;;;;;;;;;;2128491;27;20191;-47
2021/11/06 04:42:36;;;;;;;19.13;10.53;;;;;;;;;;2131154;27;20449;-47
2021/11/06 04:43:38;;;;;;;12.73;10.20;;;;;;;;;;2129877;27;20529;-47
2021/11/06 04:44:39;;;;;;;13.35;10.70;;;;;;;;;;2129067;27;20491;-47
2021/11/06 04:45:40;;;;;;;14.57;10.70;;;;;;;;;;2131205;27;20049;-48
2021/11/06 04:46:41;;;;;;;17.35;9.65;;;;;;;;;;2129270;27;20129;-48
2021/11/06 04:47:42;;;;;;;14.02;10.88;;;;;;;;;;2129445;27;20471;-47
2021/11/06 04:48:43;;;;;;;14.37;10.50;;;;;;;;;;2131348;27;20133;-47
2021/11/06 04:49:44;;;;;;;15.10;11.02;;;;;;;;;;2129101;27;20293;-51
2021/11/06 04:50:45;;;;;;;14.15;11.02;;;;;;;;;;2129747;27;20051;-51
2021/11/06 04:51:46;;;;;;;15.25;10.38;;;;;;;;;;2131154;27;20043;-46
2021/11/06 04:52:47;;;;;;;13.37;10.13;;;;;;;;;;2129097;27;20047;-50
2021/11/06 04:53:48;;;;;;;14.90;10.05;;;;;;;;;;2129807;27;20565;-48
2021/11/06 04:54:50;;;;;;;13.43;9.67;;;;;;;;;;2131232;27;20047;-47
2021/11/06 04:55:50;;;;;;;13.15;9.82;;;;;;;;;;2127763;27;20047;-47
2021/11/06 04:56:51;;;;;;;16.27;10.23;;;;;;;;;;2130777;27;20487;-47
2021/11/06 04:57:52;;;;;;;10.93;8.53;;;;;;;;;;2131322;27;20130;-48
2021/11/06 04:58:53;;;;;;;12.65;9.35;;;;;;;;;;2127774;27;20290;-46
2021/11/06 04:59:54;;;;;;;11.05;8.98;;;;;;;;;;2130453;27;20119;-50
2021/11/06 05:00:56;;;;;;;13.47;8.60;;;;;;;;;;2132666;27;20043;-47
2021/11/06 05:01:57;;;;;;;10.88;9.07;;;;;;;;;;2129366;27;20074;-47
2021/11/06 05:02:58;;;;;;;12.70;9.30;;;;;;;;;;2130584;27;20054;-47
2021/11/06 05:03:59;;;;;;;13.75;9.30;;;;;;;;;;2132795;27;20277;-47
2021/11/06 05:05:00;;;;;;;11.63;9.67;;;;;;;;;;2128951;27;20479;-47
2021/11/06 05:06:01;;;;;;;12.27;10.25;;;;;;;;;;2132522;27;20046;-47
2021/11/06 05:07:02;;;;;;;12.32;9.68;;;;;;;;;;2132651;27;20046;-48
2021/11/06 05:08:03;;;;;;;13.35;10.10;;;;;;;;;;2128898;27;20078;-48
2021/11/06 05:09:04;;;;;;;12.23;10.18;;;;;;;;;;2132618;27;20075;-46
2021/11/06 05:10:07;;;;;;;12.95;8.55;;;;;;;;;;2132139;27;20192;-49
2021/11/06 05:11:07;;;;;;;13.30;10.32;;;;;;;;;;2129266;27;20474;-47
2021/11/06 05:12:09;;;;;;;13.10;8.83;;;;;;;;;;2132454;27;20055;-48
2021/11/06 05:13:10;;;;;;;11.27;9.63;;;;;;;;;;2132175;27;20123;-46
2021/11/06 05:14:11;;;;;;;11.93;9.53;;;;;;;;;;2129262;27;20179;-47
2021/11/06 05:15:12;;;;;;;12.18;9.70;;;;;;;;;;2132565;27;20126;-46
2021/11/06 05:16:13;;;;;;;14.80;9.77;;;;;;;;;;2131477;27;20502;-47
2021/11/06 05:17:14;;;;;;;12.57;9.25;;;;;;;;;;2127655;27;20039;-49
2021/11/06 05:18:17;;;;;;;14.50;10.13;;;;;;;;;;2124069;28;20051;-46
2021/11/06 05:19:18;;;;;;;13.50;10.50;;;;;;;;;;2124643;27;20125;-48
2021/11/06 05:20:20;;;;;;;21.17;9.90;;;;;;;;;;2131045;27;20403;-47
2021/11/06 05:21:21;;;;;;;10.70;9.15;;;;;;;;;;2132519;27;20057;-47
2021/11/06 05:22:22;;;;;;;15.25;9.75;;;;;;;;;;2130523;27;20431;-46
2021/11/06 05:23:23;;;;;;;13.27;9.43;;;;;;;;;;2130115;27;20126;-49
2021/11/06 05:24:27;;;;;;;11.77;9.50;;;;;;;;;;2132587;27;20050;-47
2021/11/06 05:25:29;;;;;;;11.40;8.57;;;;;;;;;;2128874;27;20567;-47
2021/11/06 05:26:30;;;;;;;12.45;9.10;;;;;;;;;;2131182;27;20428;-46
2021/11/06 05:27:31;;;;;;;11.98;8.75;;;;;;;;;;2132533;27;20062;-47
2021/11/06 05:28:32;;;;;;;13.00;9.40;;;;;;;;;;2127864;27;20164;-51
2021/11/06 05:29:52;;;;;;;12.17;8.83;;;;;;;;;;2132383;27;20460;-49
2021/11/06 05:30:53;;;;;;;13.13;9.13;;;;;;;;;;2132027;27;20130;-45
2021/11/06 05:31:54;;;;;;;12.07;8.00;;;;;;;;;;2129291;27;20479;-47
2021/11/06 05:32:55;;;;;;;12.82;9.60;;;;;;;;;;2132614;27;20046;-49
2021/11/06 05:33:56;;;;;;;10.30;8.25;;;;;;;;;;2131982;27;20043;-47
2021/11/06 05:34:57;;;;;;;12.52;8.77;;;;;;;;;;2127646;27;20103;-48
2021/11/06 05:35:58;;;;;;;11.80;9.65;;;;;;;;;;2123991;28;20133;-46
2021/11/06 05:36:59;;;;;;;12.87;9.53;;;;;;;;;;2124283;27;20130;-50
2021/11/06 05:38:00;;;;;;;12.40;8.52;;;;;;;;;;2130060;27;20043;-47
2021/11/06 05:39:02;;;;;;;10.02;8.45;;;;;;;;;;2132401;27;20125;-50
2021/11/06 05:40:03;;;;;;;11.50;9.00;;;;;;;;;;2128859;27;20127;-47
2021/11/06 05:41:05;;;;;;;14.25;9.50;;;;;;;;;;2130899;27;20085;-47
2021/11/06 05:42:06;;;;;;;11.25;8.35;;;;;;;;;;2132448;27;20180;-48
2021/11/06 05:43:07;;;;;;;10.93;8.20;;;;;;;;;;2130283;27;20035;-50
2021/11/06 05:44:08;;;;;;;13.95;8.45;;;;;;;;;;2130788;27;20169;-50
2021/11/06 05:45:10;;;;;;;11.02;9.43;;;;;;;;;;2132408;27;20049;-47
2021/11/06 05:46:11;;;;;;;10.32;7.85;;;;;;;;;;2129961;27;20526;-47
2021/11/06 05:47:12;;;;;;;10.68;7.55;;;;;;;;;;2131832;27;20487;-47
2021/11/06 05:48:13;;;;;;;12.27;7.95;;;;;;;;;;2132314;27;20126;-51
2021/11/06 05:49:14;;;;;;;10.43;8.38;;;;;;;;;;2130097;27;20243;-48
2021/11/06 05:50:15;;;;;;;9.77;6.80;;;;;;;;;;2132073;27;20158;-47
2021/11/06 05:51:16;;;;;;;11.07;8.15;;;;;;;;;;2132352;27;20184;-48
2021/11/06 05:52:17;;;;;;;11.37;8.30;;;;;;;;;;2129868;27;20102;-47
2021/11/06 05:53:18;;;;;;;12.38;8.52;;;;;;;;;;2131021;27;20182;-50
2021/11/06 05:54:20;;;;;;;10.85;7.95;;;;;;;;;;2132280;27;20447;-47
2021/11/06 05:55:21;;;;;;;9.45;8.38;;;;;;;;;;2128694;27;20499;-47
2021/11/06 05:56:22;;;;;;;11.63;8.00;;;;;;;;;;2132286;27;20081;-47
2021/11/06 05:57:23;;;;;;;9.52;8.07;;;;;;;;;;2132171;27;20358;-47
2021/11/06 05:58:24;;;;;;;11.95;7.40;;;;;;;;;;2129914;27;20099;-47
2021/11/06 05:59:25;;;;;;;10.40;7.88;;;;;;;;;;2132324;27;20121;-47
2021/11/06 06:00:30;;;;;;;10.60;8.23;;;;;;;;;;2132158;27;20448;-47
2021/11/06 06:01:31;;;;;;;9.63;7.38;;;;;;;;;;2127701;27;20049;-51
2021/11/06 06:02:33;;;;;;;10.25;7.88;;;;;;;;;;2132120;27;20062;-46
2021/11/06 06:03:34;;;;;;;9.90;7.80;;;;;;;;;;2130288;27;20470;-46
2021/11/06 06:04:35;;;;;;;9.90;7.50;;;;;;;;;;2130268;27;20046;-46